createdAt,value
2023-02-05T00:00:43.659Z,80.07
2023-02-05T00:03:12.099Z,79.87
2023-02-05T00:05:40.170Z,80.10
2023-02-05T00:08:08.361Z,80.34
2023-02-05T00:10:36.425Z,80.23
2023-02-05T00:13:04.675Z,80.35
2023-02-05T00:15:33.045Z,80.29
2023-02-05T00:18:01.137Z,80.46
2023-02-05T00:20:29.321Z,80.63
2023-02-05T00:22:57.768Z,80.10
2023-02-05T00:25:26.381Z,80.21
2023-02-05T00:27:54.430Z,80.52
2023-02-05T00:30:22.460Z,80.66
2023-02-05T00:32:50.818Z,80.83
2023-02-05T00:35:19.015Z,80.91
2023-02-05T00:37:47.061Z,80.97
2023-02-05T00:40:15.678Z,81.01
2023-02-05T00:42:44.557Z,80.87
2023-02-05T00:45:12.472Z,80.57
2023-02-05T00:47:40.445Z,80.77
2023-02-05T00:50:08.777Z,80.89
2023-02-05T00:52:36.739Z,80.80
2023-02-05T00:55:05.381Z,80.74
2023-02-05T00:57:33.541Z,80.84
2023-02-05T01:00:02.134Z,80.88
2023-02-05T01:02:30.681Z,80.80
2023-02-05T01:04:59.356Z,80.68
2023-02-05T01:07:27.822Z,80.90
2023-02-05T01:09:55.843Z,81.02
2023-02-05T01:12:23.878Z,81.12
2023-02-05T01:14:52.276Z,81.01
2023-02-05T01:17:20.568Z,81.28
2023-02-05T01:19:48.704Z,81.39
2023-02-05T01:22:16.683Z,81.23
2023-02-05T01:24:44.582Z,81.03
2023-02-05T01:27:12.779Z,81.24
2023-02-05T01:29:41.711Z,81.33
2023-02-05T01:32:09.889Z,81.35
2023-02-05T01:34:38.745Z,81.50
2023-02-05T01:37:06.932Z,81.79
2023-02-05T01:39:37.577Z,81.74
2023-02-05T01:42:15.190Z,81.58
2023-02-05T01:44:43.328Z,81.58
2023-02-05T01:47:13.326Z,81.81
2023-02-05T01:49:42.889Z,81.82
2023-02-05T01:52:12.666Z,81.95
2023-02-05T01:54:43.210Z,82.04
2023-02-05T01:57:14.761Z,82.18
2023-02-05T01:59:42.743Z,82.06
2023-02-05T02:02:11.105Z,81.95
2023-02-05T02:04:41.966Z,82.01
2023-02-05T02:07:12.689Z,82.00
2023-02-05T02:09:41.505Z,82.19
2023-02-05T02:12:14.164Z,82.25
2023-02-05T02:14:43.087Z,82.10
2023-02-05T02:17:11.066Z,82.00
2023-02-05T02:19:58.899Z,81.88
2023-02-05T02:23:09.409Z,82.09
2023-02-05T02:26:01.337Z,82.51
2023-02-05T02:28:38.722Z,82.25
2023-02-05T02:31:17.446Z,82.25
2023-02-05T02:33:52.940Z,82.40
2023-02-05T02:36:24.137Z,82.09
2023-02-05T02:39:13.298Z,81.93
2023-02-05T02:41:43.723Z,81.95
2023-02-05T02:44:18.484Z,82.00
2023-02-05T02:46:49.098Z,81.83
2023-02-05T02:49:21.362Z,81.84
2023-02-05T02:51:49.266Z,81.77
2023-02-05T02:54:18.717Z,81.75
2023-02-05T02:56:47.635Z,81.50
2023-02-05T02:59:18.026Z,81.55
2023-02-05T03:01:53.742Z,81.84
2023-02-05T03:04:42.973Z,81.92
2023-02-05T03:07:17.726Z,81.84
2023-02-05T03:09:57.145Z,81.87
2023-02-05T03:12:29.931Z,81.69
2023-02-05T03:14:58.804Z,81.93
2023-02-05T03:17:27.079Z,81.87
2023-02-05T03:20:20.768Z,82.06
2023-02-05T03:22:48.828Z,82.25
2023-02-05T03:25:19.431Z,82.11
2023-02-05T03:27:48.262Z,82.22
2023-02-05T03:30:16.833Z,81.91
2023-02-05T03:33:03.184Z,81.75
2023-02-05T03:35:46.049Z,81.68
2023-02-05T03:38:30.895Z,81.90
2023-02-05T03:41:55.563Z,81.80
2023-02-05T03:44:51.704Z,81.99
2023-02-05T03:48:00.155Z,82.02
2023-02-05T03:50:31.429Z,81.87
2023-02-05T03:53:29.192Z,81.52
2023-02-05T03:56:25.701Z,81.49
2023-02-05T03:58:55.582Z,81.75
2023-02-05T04:01:24.381Z,81.79
2023-02-05T04:03:52.776Z,81.92
2023-02-05T04:06:20.939Z,81.69
2023-02-05T04:08:49.213Z,81.72
2023-02-05T04:11:17.870Z,81.59
2023-02-05T04:13:47.270Z,81.63
2023-02-05T04:16:16.117Z,81.89
2023-02-05T04:18:44.622Z,82.13
2023-02-05T04:21:13.123Z,82.16
2023-02-05T04:23:41.837Z,82.21
2023-02-05T04:26:09.842Z,82.26
2023-02-05T04:28:43.474Z,82.13
2023-02-05T04:31:12.548Z,81.87
2023-02-05T04:33:41.356Z,81.89
2023-02-05T04:36:11.582Z,82.02
2023-02-05T04:38:39.526Z,81.77
2023-02-05T04:41:08.278Z,81.69
2023-02-05T04:43:36.706Z,81.63
2023-02-05T04:46:08.534Z,81.77
2023-02-05T04:48:37.508Z,81.45
2023-02-05T04:51:07.457Z,81.07
2023-02-05T04:53:35.872Z,81.23
2023-02-05T04:56:08.987Z,81.54
2023-02-05T04:58:37.107Z,81.90
2023-02-05T05:01:05.305Z,82.02
2023-02-05T05:03:34.083Z,81.89
2023-02-05T05:06:06.086Z,81.78
2023-02-05T05:08:34.713Z,81.81
2023-02-05T05:11:07.194Z,81.95
2023-02-05T05:13:35.718Z,81.98
2023-02-05T05:16:04.542Z,82.26
2023-02-05T05:18:33.729Z,82.18
2023-02-05T05:21:02.397Z,82.31
2023-02-05T05:23:31.320Z,82.46
2023-02-05T05:25:59.310Z,82.20
2023-02-05T05:28:27.820Z,81.98
2023-02-05T05:30:55.891Z,81.93
2023-02-05T05:33:24.254Z,82.02
2023-02-05T05:35:52.409Z,82.14
2023-02-05T05:38:20.405Z,82.41
2023-02-05T05:41:07.187Z,82.31
2023-02-05T05:43:47.320Z,82.38
2023-02-05T05:46:23.793Z,82.19
2023-02-05T05:48:56.415Z,82.14
2023-02-05T05:51:26.217Z,82.44
2023-02-05T05:53:54.770Z,82.75
2023-02-05T05:56:22.793Z,82.79
2023-02-05T05:58:50.908Z,83.02
2023-02-05T06:01:20.488Z,82.93
2023-02-05T06:03:49.002Z,82.68
2023-02-05T06:06:17.005Z,82.73
2023-02-05T06:08:45.350Z,83.21
2023-02-05T06:11:13.338Z,83.50
2023-02-05T06:13:41.920Z,83.49
2023-02-05T06:16:10.187Z,83.40
2023-02-05T06:18:39.095Z,83.15
2023-02-05T06:21:07.100Z,82.99
2023-02-05T06:23:35.942Z,82.87
2023-02-05T06:26:04.398Z,83.28
2023-02-05T06:28:32.373Z,83.40
2023-02-05T06:31:47.342Z,83.66
2023-02-05T06:34:15.593Z,83.60
2023-02-05T06:36:43.848Z,83.65
2023-02-05T06:39:12.469Z,83.59
2023-02-05T06:41:40.430Z,83.26
2023-02-05T06:44:08.448Z,83.25
2023-02-05T06:46:37.074Z,83.00
2023-02-05T06:49:05.732Z,83.13
2023-02-05T06:51:33.996Z,83.20
2023-02-05T06:54:02.825Z,83.25
2023-02-05T06:56:30.958Z,83.29
2023-02-05T06:59:00.336Z,83.53
2023-02-05T07:01:28.506Z,83.37
2023-02-05T07:03:58.230Z,83.46
2023-02-05T07:06:26.680Z,83.26
2023-02-05T07:08:56.127Z,83.24
2023-02-05T07:11:25.226Z,83.28
2023-02-05T07:13:54.187Z,83.17
2023-02-05T07:16:22.617Z,82.96
2023-02-05T07:18:53.499Z,82.70
2023-02-05T07:21:22.353Z,82.97
2023-02-05T07:23:50.584Z,82.67
2023-02-05T07:26:19.586Z,82.27
2023-02-05T07:28:47.451Z,81.72
2023-02-05T07:31:17.011Z,81.62
2023-02-05T07:33:46.941Z,81.63
2023-02-05T07:36:16.582Z,81.50
2023-02-05T07:38:45.592Z,81.80
2023-02-05T07:41:14.802Z,81.79
2023-02-05T07:43:42.897Z,82.19
2023-02-05T07:46:12.533Z,82.40
2023-02-05T07:48:40.532Z,82.22
2023-02-05T07:51:08.634Z,81.64
2023-02-05T07:53:36.582Z,81.23
2023-02-05T07:56:04.967Z,80.94
2023-02-05T07:58:32.928Z,80.91
2023-02-05T08:01:04.017Z,80.79
2023-02-05T08:03:32.505Z,80.50
2023-02-05T08:06:05.340Z,80.27
2023-02-05T08:08:33.718Z,79.88
2023-02-05T08:11:03.617Z,80.06
2023-02-05T08:13:36.685Z,79.55
2023-02-05T08:16:07.191Z,79.39
2023-02-05T08:18:38.596Z,79.64
2023-02-05T08:21:06.885Z,79.50
2023-02-05T08:23:35.032Z,79.68
2023-02-05T08:26:03.872Z,79.07
2023-02-05T08:28:33.670Z,78.74
2023-02-05T08:31:10.735Z,78.63
2023-02-05T08:33:39.018Z,78.14
2023-02-05T08:36:07.699Z,77.76
2023-02-05T08:38:35.724Z,77.32
2023-02-05T08:41:12.715Z,77.18
2023-02-05T08:43:42.238Z,76.99
2023-02-05T08:46:10.841Z,77.06
2023-02-05T08:48:39.029Z,76.75
2023-02-05T08:51:09.725Z,76.38
2023-02-05T08:53:38.004Z,76.33
2023-02-05T08:56:06.556Z,75.78
2023-02-05T08:58:34.629Z,75.86
2023-02-05T09:01:08.497Z,76.11
2023-02-05T09:03:36.670Z,76.10
2023-02-05T09:06:08.254Z,76.31
2023-02-05T09:08:36.741Z,75.89
2023-02-05T09:11:05.768Z,76.04
2023-02-05T09:13:36.331Z,76.43
2023-02-05T09:16:05.271Z,76.43
2023-02-05T09:18:33.860Z,76.29
2023-02-05T09:21:01.832Z,76.30
2023-02-05T09:23:30.155Z,76.55
2023-02-05T09:26:01.343Z,76.25
2023-02-05T09:28:29.518Z,75.94
2023-02-05T09:30:58.152Z,75.93
2023-02-05T09:33:26.330Z,75.95
2023-02-05T09:35:54.360Z,76.15
2023-02-05T09:38:23.575Z,75.98
2023-02-05T09:40:59.313Z,75.80
2023-02-05T09:43:30.778Z,75.68
2023-02-05T09:46:01.701Z,75.62
2023-02-05T09:48:29.929Z,75.35
2023-02-05T10:14:21.037Z,76.66
2023-02-05T10:17:01.426Z,76.60
2023-02-05T10:19:54.672Z,76.52
2023-02-05T10:22:33.342Z,76.57
2023-02-05T10:25:48.462Z,76.86
2023-02-05T10:29:16.624Z,77.14
2023-02-05T10:31:54.795Z,77.08
2023-02-05T10:34:54.235Z,77.20
2023-02-05T10:37:29.337Z,77.26
2023-02-05T10:39:57.494Z,77.40
2023-02-05T10:42:32.973Z,77.22
2023-02-05T10:45:25.376Z,77.20
2023-02-05T10:48:19.301Z,77.66
2023-02-05T10:51:09.282Z,78.12
2023-02-05T10:53:38.657Z,78.23
2023-02-05T10:56:06.867Z,78.03
2023-02-05T10:58:55.011Z,78.01
2023-02-05T11:01:33.795Z,78.21
2023-02-05T11:04:14.195Z,78.46
2023-02-05T11:06:50.520Z,78.19
2023-02-05T11:09:24.488Z,78.03
2023-02-05T11:11:57.511Z,78.08
2023-02-05T11:14:38.681Z,78.07
2023-02-05T11:17:18.142Z,77.90
2023-02-05T11:20:08.761Z,78.05
2023-02-05T11:22:40.704Z,78.12
2023-02-05T11:25:19.134Z,78.15
2023-02-05T11:27:53.977Z,78.41
2023-02-05T11:30:56.014Z,78.51
2023-02-05T11:33:24.372Z,78.17
2023-02-05T11:35:57.607Z,78.16
2023-02-05T11:38:48.388Z,78.43
2023-02-05T11:41:28.591Z,78.41
2023-02-05T11:43:58.029Z,78.44
2023-02-05T11:46:28.125Z,78.56
2023-02-05T11:49:00.176Z,78.66
2023-02-05T11:51:30.045Z,78.42
2023-02-05T11:53:59.101Z,78.34
2023-02-05T11:56:27.173Z,78.40
2023-02-05T11:59:04.510Z,78.76
2023-02-05T12:01:34.312Z,79.08
2023-02-05T12:04:11.697Z,79.10
2023-02-05T12:06:42.437Z,79.04
2023-02-05T12:09:12.909Z,79.24
2023-02-05T12:12:03.842Z,79.28
2023-02-05T12:14:56.706Z,79.13
2023-02-05T12:17:40.216Z,79.10
2023-02-05T12:20:28.799Z,79.44
2023-02-05T12:23:32.315Z,79.70
2023-02-05T12:26:22.227Z,80.15
2023-02-05T12:28:56.669Z,80.45
2023-02-05T12:31:48.335Z,80.43
2023-02-05T12:34:42.566Z,80.41
2023-02-05T12:37:18.802Z,80.62
2023-02-05T12:39:54.855Z,80.81
2023-02-05T12:42:36.567Z,81.03
2023-02-05T12:45:23.205Z,81.03
2023-02-05T12:48:03.119Z,81.00
2023-02-05T12:50:55.246Z,80.89
2023-02-05T12:53:54.688Z,81.22
2023-02-05T12:56:45.034Z,81.30
2023-02-05T12:59:19.685Z,81.45
2023-02-05T13:01:59.962Z,81.67
2023-02-05T13:04:34.121Z,81.98
2023-02-05T13:07:41.575Z,82.02
2023-02-05T13:10:23.040Z,81.98
2023-02-05T13:13:03.247Z,82.07
2023-02-05T13:15:42.461Z,82.26
2023-02-05T13:18:14.285Z,82.13
2023-02-05T13:21:30.269Z,82.03
2023-02-05T13:24:52.822Z,82.01
2023-02-05T13:27:48.236Z,82.07
2023-02-05T13:30:21.268Z,82.43
2023-02-05T13:32:52.000Z,82.72
2023-02-05T13:35:22.291Z,82.75
2023-02-05T13:38:10.877Z,82.76
2023-02-05T13:40:58.289Z,82.51
2023-02-05T13:43:49.933Z,82.61
2023-02-05T13:46:43.077Z,83.04
2023-02-05T13:49:29.473Z,83.40
2023-02-05T13:52:00.643Z,83.63
2023-02-05T13:54:38.395Z,83.59
2023-02-05T13:57:33.299Z,83.52
2023-02-05T14:00:01.372Z,83.84
2023-02-05T14:02:33.987Z,84.12
2023-02-05T14:05:03.100Z,84.24
2023-02-05T14:07:33.987Z,84.29
2023-02-05T14:10:02.994Z,84.16
2023-02-05T14:12:38.222Z,84.04
2023-02-05T14:15:16.392Z,84.28
2023-02-05T14:17:49.015Z,84.41
2023-02-05T14:20:43.457Z,84.87
2023-02-05T14:23:33.982Z,84.94
2023-02-05T14:26:03.992Z,84.85
2023-02-05T14:28:35.396Z,84.87
2023-02-05T14:31:05.793Z,85.17
2023-02-05T14:33:41.089Z,85.50
2023-02-05T14:36:16.128Z,85.86
2023-02-05T14:38:54.927Z,85.80
2023-02-05T14:41:28.861Z,85.80
2023-02-05T14:43:58.234Z,85.76
2023-02-05T14:46:41.619Z,86.05
2023-02-05T14:49:33.011Z,86.61
2023-02-05T14:52:02.983Z,86.79
2023-02-05T14:54:40.564Z,86.71
2023-02-05T14:57:09.202Z,86.83
2023-02-05T14:59:51.845Z,87.22
2023-02-05T15:02:45.622Z,87.40
2023-02-05T15:05:37.970Z,87.44
2023-02-05T15:08:18.490Z,87.65
2023-02-05T15:11:08.042Z,87.28
2023-02-05T15:13:36.372Z,87.32
2023-02-05T15:16:11.680Z,87.53
2023-02-05T15:18:40.002Z,87.92
2023-02-05T15:21:32.321Z,87.92
2023-02-05T15:24:02.354Z,88.00
2023-02-05T15:26:53.418Z,87.65
2023-02-05T15:29:26.793Z,87.80
2023-02-05T15:31:58.078Z,87.97
2023-02-05T15:34:48.590Z,88.02
2023-02-05T15:37:25.560Z,88.15
2023-02-05T15:39:55.858Z,87.82
2023-02-05T15:42:31.847Z,87.77
2023-02-05T15:45:29.508Z,87.94
2023-02-05T15:48:11.155Z,88.10
2023-02-05T15:50:49.748Z,88.09
2023-02-05T15:53:38.005Z,87.99
2023-02-05T15:56:35.665Z,87.60
2023-02-05T15:59:09.782Z,87.60
2023-02-05T16:01:46.732Z,87.71
2023-02-05T16:04:22.217Z,87.50
2023-02-05T16:06:55.215Z,87.39
2023-02-05T16:09:25.836Z,87.23
2023-02-05T16:11:57.910Z,86.74
2023-02-05T16:14:28.675Z,86.73
2023-02-05T16:17:06.610Z,87.09
2023-02-05T16:19:41.087Z,87.13
2023-02-05T16:22:35.834Z,87.10
2023-02-05T16:25:07.714Z,86.96
2023-02-05T16:27:44.431Z,86.85
2023-02-05T16:30:19.115Z,87.11
2023-02-05T16:32:47.726Z,87.05
2023-02-05T16:35:23.590Z,87.04
2023-02-05T16:37:52.116Z,86.97
2023-02-05T16:40:30.736Z,86.80
2023-02-05T17:29:15.015Z,84.27
2023-02-05T17:31:43.545Z,82.55
2023-02-05T17:34:13.512Z,81.58
2023-02-05T17:36:41.569Z,80.13
2023-02-05T17:39:09.517Z,79.54
2023-02-05T17:41:56.151Z,79.59
2023-02-05T17:44:24.248Z,79.42
2023-02-05T17:46:54.329Z,79.30
2023-02-05T17:49:23.250Z,78.92
2023-02-05T17:51:52.737Z,78.57
2023-02-05T17:54:24.082Z,78.41
2023-02-05T17:56:54.618Z,78.13
2023-02-05T17:59:24.202Z,78.27
2023-02-05T18:01:53.404Z,78.37
2023-02-05T18:04:21.578Z,78.22
2023-02-05T18:06:50.521Z,78.36
2023-02-05T18:09:20.058Z,78.45
2023-02-05T18:11:49.552Z,78.32
2023-02-05T18:14:19.914Z,78.32
2023-02-05T18:16:48.713Z,78.06
2023-02-05T18:19:17.206Z,77.80
2023-02-05T18:21:47.452Z,77.79
2023-02-05T18:24:15.964Z,77.77
2023-02-05T18:26:44.146Z,77.90
2023-02-05T18:29:13.686Z,77.93
2023-02-05T18:31:48.574Z,77.77
2023-02-05T18:34:16.789Z,77.58
2023-02-05T18:36:45.225Z,77.53
2023-02-05T18:39:13.427Z,77.56
2023-02-05T18:41:41.856Z,77.27
2023-02-05T18:44:10.356Z,77.33
2023-02-05T18:46:38.560Z,77.24
2023-02-05T18:49:06.912Z,77.20
2023-02-05T18:51:37.628Z,77.14
2023-02-05T18:54:08.756Z,77.18
2023-02-05T18:56:37.423Z,76.99
2023-02-05T18:59:07.411Z,77.04
2023-02-05T19:01:38.358Z,77.05
2023-02-05T19:04:13.206Z,77.07
2023-02-05T19:06:43.716Z,76.93
2023-02-05T19:09:12.089Z,77.04
2023-02-05T19:11:41.776Z,76.88
2023-02-05T19:14:14.702Z,76.98
2023-02-05T19:16:43.566Z,77.03
2023-02-05T19:19:14.591Z,77.04
2023-02-05T19:21:45.095Z,77.02
2023-02-05T19:24:13.472Z,77.09
2023-02-05T19:26:43.835Z,77.12
2023-02-05T19:29:16.617Z,76.97
2023-02-05T19:31:45.056Z,76.79
2023-02-05T19:34:13.225Z,77.07
2023-02-05T19:36:41.802Z,77.10
2023-02-05T19:39:11.667Z,77.05
2023-02-05T19:41:40.456Z,76.90
2023-02-05T19:44:08.990Z,76.85
2023-02-05T19:46:44.556Z,77.09
2023-02-05T19:49:20.559Z,76.92
2023-02-05T19:51:51.845Z,76.74
2023-02-05T19:54:21.574Z,76.70
2023-02-05T19:56:51.134Z,76.76
2023-02-05T19:59:19.554Z,76.49
2023-02-05T20:01:49.045Z,76.58
2023-02-05T20:04:21.803Z,76.56
2023-02-05T20:06:53.074Z,76.51
2023-02-05T20:09:21.490Z,76.36
2023-02-05T20:11:50.287Z,76.70
2023-02-05T20:14:18.788Z,76.71
2023-02-05T20:16:47.401Z,76.67
2023-02-05T20:19:16.076Z,76.43
2023-02-05T20:21:45.387Z,76.63
2023-02-05T20:24:14.969Z,76.65
2023-02-05T20:26:43.243Z,76.69
2023-02-05T20:29:30.300Z,76.70
2023-02-05T20:32:00.636Z,76.44
2023-02-05T20:34:31.257Z,76.47
2023-02-05T20:37:02.266Z,76.45
2023-02-05T20:39:30.614Z,76.43
2023-02-05T20:41:59.163Z,76.24
2023-02-05T20:44:29.408Z,76.27
2023-02-05T20:46:57.469Z,76.32
2023-02-05T20:49:25.824Z,76.39
2023-02-05T20:51:54.422Z,76.35
2023-02-05T20:54:22.896Z,76.20
2023-02-05T20:56:51.798Z,76.21
2023-02-05T20:59:19.750Z,76.11
2023-02-05T21:01:48.057Z,76.20
2023-02-05T21:04:16.347Z,76.16
2023-02-05T21:06:44.709Z,76.39
2023-02-05T21:09:13.343Z,76.55
2023-02-05T21:11:41.692Z,76.53
2023-02-05T21:14:19.254Z,76.59
2023-02-05T21:16:48.115Z,76.56
2023-02-05T21:19:18.273Z,76.59
2023-02-05T21:21:46.603Z,76.39
2023-02-05T21:24:15.621Z,76.55
2023-02-05T21:26:46.117Z,76.73
2023-02-05T21:29:19.593Z,76.76
2023-02-05T21:31:49.861Z,76.69
2023-02-05T21:34:21.884Z,76.69
2023-02-05T21:36:51.022Z,76.84
2023-02-05T21:39:20.655Z,77.00
2023-02-05T21:41:50.989Z,77.13
2023-02-05T21:44:19.025Z,77.11
2023-02-05T21:46:47.723Z,77.01
2023-02-05T21:49:15.746Z,77.20
2023-02-05T21:51:43.818Z,77.12
2023-02-05T21:54:11.858Z,77.15
2023-02-05T21:56:41.189Z,77.38
2023-02-05T21:59:11.026Z,77.27
2023-02-05T22:01:39.454Z,77.30
2023-02-05T22:04:11.570Z,77.59
2023-02-05T22:06:39.644Z,77.43
2023-02-05T22:09:12.752Z,77.43
2023-02-05T22:11:40.884Z,77.59
2023-02-05T22:14:09.379Z,77.54
2023-02-05T22:16:38.112Z,77.78
2023-02-05T22:19:06.818Z,77.87
2023-02-05T22:21:38.166Z,78.00
2023-02-05T22:24:06.292Z,78.18
2023-02-05T22:26:38.514Z,78.30
2023-02-05T22:29:07.590Z,78.50
2023-02-05T22:31:36.423Z,79.17
2023-02-05T22:34:04.552Z,79.76
2023-02-05T22:36:34.053Z,80.19
2023-02-05T22:39:02.311Z,80.44
2023-02-05T22:41:32.838Z,80.56
2023-02-05T22:44:01.425Z,80.82
2023-02-05T22:46:31.554Z,80.93
2023-02-05T22:49:00.560Z,81.10
2023-02-05T22:51:39.499Z,81.59
2023-02-05T22:54:08.578Z,82.13
2023-02-05T22:56:38.163Z,82.43
2023-02-05T22:59:06.683Z,82.91
2023-02-05T23:01:36.675Z,83.16
2023-02-05T23:04:05.898Z,83.01
2023-02-05T23:06:36.023Z,83.15
2023-02-05T23:09:06.908Z,83.36
2023-02-05T23:11:37.158Z,83.77
2023-02-05T23:14:05.945Z,83.75
2023-02-05T23:16:36.025Z,84.00
2023-02-05T23:19:07.513Z,84.05
2023-02-05T23:21:36.499Z,83.95
2023-02-05T23:24:05.371Z,83.75
2023-02-05T23:26:37.214Z,84.07
2023-02-05T23:29:05.764Z,84.26
2023-02-05T23:31:35.356Z,84.32
2023-02-05T23:34:03.425Z,84.33
2023-02-05T23:36:31.952Z,84.34
2023-02-05T23:39:00.079Z,84.09
2023-02-05T23:41:37.434Z,84.17
2023-02-05T23:44:18.327Z,84.48
2023-02-05T23:46:47.914Z,84.68
2023-02-05T23:49:16.586Z,84.91
2023-02-05T23:51:45.178Z,85.00
2023-02-05T23:54:13.543Z,85.02
2023-02-05T23:56:42.024Z,85.08
2023-02-05T23:59:12.111Z,85.21
